Latest Coastal Weather Observations for Cape Byron

IDN60701

Issued at 2:35 pm EST Monday 21 April 2014 (issued every 10 minutes, with the page automatically refreshed every 10 minutes)

About coastal observations | Map of coastal stations | Coastal observations for NSW | Marine services | Other Formats
Station Details ID: 058216 Name: CAPE BYRON AWS Lat: -28.64 Lon: 153.64 Height: 95.0 m
Data from the previous 72 hours. | See also: Recent months at Cape Byron
Date/Time
EST
Temp

°C
Wind Pressure Rain
since 9am
mm
Weather Cloud Vis
km
Sea
Height
m
Swell
Dir
 
Speed
knots
Gust
knots
hPa Trend Height
m
Period
s
Dir
21/02:30pm 25.3 NNE 11 17 1018.2 - 0.0 - - - - - - -
21/02:00pm 25.6 NNE 12 17 1018.4 - 0.0 - - - - - - -
21/01:30pm 25.7 NNE 10 15 1018.6 - 0.0 - - - - - - -
21/01:00pm 25.7 NNE 10 15 1019.0 - 0.0 - - - - - - -
21/12:30pm 25.7 NNE 10 13 1019.4 - 0.0 - - - - - - -
21/12:00pm 26.3 N 8 14 1019.4 - 0.0 - - - - - - -
21/11:30am 26.6 NNE 6 9 1020.2 - 0.0 - - - - - - -
21/11:00am 25.3 N 5 8 1020.6 - 0.0 - - - - - - -
21/10:30am 24.7 N 5 8 1020.8 - 0.0 - - - - - - -
21/10:00am 24.0 N 5 7 1021.1 - 0.0 - - - - - - -
21/09:30am 23.3 N 4 6 1021.2 - 0.0 - - - - - - -
21/09:00am 22.7 N 4 6 1020.8 - 0.0 - - - - - - -
21/08:30am 22.1 N 4 6 1021.1 - 0.0 - - - - - - -
21/08:00am 21.5 N 5 6 1020.9 - 0.0 - - - - - - -
21/07:30am 21.0 N 5 6 1020.6 - 0.0 - - - - - - -
21/07:00am 20.5 N 6 9 1020.2 - 0.0 - - - - - - -
21/06:30am 20.7 NE 4 8 1019.8 - 0.0 - - - - - - -
21/06:00am 21.0 NNW 7 11 1019.0 - 0.0 - - - - - - -
21/05:30am 21.0 N 9 12 1019.1 - 0.0 - - - - - - -
21/05:00am 20.9 NNW 7 9 1018.9 - 0.0 - - - - - - -
21/04:30am 21.4 NNW 7 14 1018.6 - 0.0 - - - - - - -
21/04:00am 21.5 NNW 8 12 1018.4 - 0.0 - - - - - - -
21/03:30am 21.3 NNW 7 10 1018.1 - 0.0 - - - - - - -
21/03:00am 21.1 NNW 6 11 1017.7 - 0.0 - - - - - - -
21/02:30am 20.8 NNW 5 10 1018.1 - 0.0 - - - - - - -
21/02:00am 21.1 N 6 10 1018.3 - 0.0 - - - - - - -
21/01:30am 21.3 NNW 7 12 1018.4 - 0.0 - - - - - - -
21/01:00am 21.0 NNW 6 12 1018.5 - 0.0 - - - - - - -
21/12:30am 21.1 NE 4 6 1018.6 - 0.0 - - - - - - -
21/12:00am 21.3 N 4 8 1018.2 - 0.0 - - - - - - -
 
Date/Time
EST
Temp

°C
Wind Pressure Rain
since 9am
mm
Weather Cloud Vis
km
Sea
Height
m
Swell
Dir
 
Speed
knots
Gust
knots
hPa Trend Height
m
Period
s
Dir
20/11:30pm 21.4 N 5 11 1018.7 - 0.0 - - - - - - -
20/11:00pm 21.3 N 6 9 1018.7 - 0.0 - - - - - - -
20/10:30pm 21.8 N 7 12 1018.8 - 0.0 - - - - - - -
20/10:00pm 22.1 N 8 12 1018.7 - 0.0 - - - - - - -
20/09:30pm 22.2 N 7 11 1018.7 - 0.0 - - - - - - -
20/09:00pm 22.4 N 8 11 1018.1 - 0.0 - - - - - - -
20/08:30pm 23.0 N 13 18 1018.4 - 0.0 - - - - - - -
20/08:00pm 23.0 N 12 16 1018.4 - 0.0 - - - - - - -
20/07:30pm 23.0 NNE 12 15 1018.2 - 0.0 - - - - - - -
20/07:00pm 22.9 NNE 11 15 1017.9 - 0.0 - - - - - - -
20/06:30pm 23.0 NNE 10 17 1017.8 - 0.0 - - - - - - -
20/06:00pm 22.9 NE 10 15 1017.1 - 0.0 - - - - - - -
20/05:30pm 23.0 NE 12 15 1017.1 - 0.0 - - - - - - -
20/05:00pm 23.2 NE 12 15 1016.9 - 0.0 - - - - - - -
20/04:30pm 23.7 NE 12 15 1016.6 - 0.0 - - - - - - -
20/04:00pm 24.3 NE 10 13 1016.8 - 0.0 - - - - - - -
20/03:30pm 24.5 NE 11 13 1016.5 - 0.0 - - - - - - -
20/03:00pm 25.0 ENE 10 12 1016.2 - 0.0 - - - - - - -
20/02:30pm 25.9 ENE 10 12 1016.5 - 0.0 - - - - - - -
20/02:00pm 26.7 ENE 8 11 1016.6 - 0.0 - - - - - - -
20/01:30pm 26.3 E 8 11 1016.6 - 0.0 - - - - - - -
20/01:00pm 26.2 E 8 10 1016.8 - 0.0 - - - - - - -
20/12:30pm 26.2 ENE 8 9 1017.2 - 0.0 - - - - - - -
20/12:00pm 26.2 ENE 8 9 1017.2 - 0.0 - - - - - - -
20/11:30am 25.8 ENE 8 9 1018.1 - 0.0 - - - - - - -
20/11:00am 25.7 ENE 7 8 1018.5 - 0.0 - - - - - - -
20/10:30am 25.5 ENE 5 6 1018.8 - 0.0 - - - - - - -
20/10:00am 24.6 E 5 7 1019.0 - 0.0 - - - - - - -
20/09:30am 23.5 E 2 4 1018.9 - 0.0 - - - - - - -
20/09:00am 22.1 W 4 5 1018.5 - 0.0 - - - - - - -
20/08:30am 21.0 W 6 9 1018.9 - 0.0 - - - - - - -
20/08:00am 20.5 W 6 9 1018.7 - 0.0 - - - - - - -
20/07:30am 20.2 W 8 9 1018.3 - 0.0 - - - - - - -
20/07:00am 19.7 W 9 11 1018.0 - 0.0 - - - - - - -
20/06:30am 19.7 W 8 9 1017.6 - 0.0 - - - - - - -
20/06:00am 19.3 WSW 9 11 1016.9 - 0.0 - - - - - - -
20/05:30am 19.7 W 7 8 1017.0 - 0.0 - - - - - - -
20/05:00am 19.5 WSW 8 10 1016.8 - 0.0 - - - - - - -
20/04:30am 19.8 WSW 8 9 1016.4 - 0.0 - - - - - - -
20/04:00am 19.8 WSW 7 10 1016.3 - 0.0 - - - - - - -
20/03:30am 20.4 WSW 5 6 1016.2 - 0.0 - - - - - - -
20/03:00am 20.2 SW 5 6 1016.0 - 0.0 - - - - - - -
20/02:30am 20.6 SW 5 6 1016.4 - 0.0 - - - - - - -
20/02:00am 20.8 SW 5 5 1016.4 - 0.0 - - - - - - -
20/01:30am 20.9 SSW 5 5 1016.6 - 0.0 - - - - - - -
20/01:00am 21.1 SW 3 4 1016.8 - 0.0 - - - - - - -
20/12:30am 20.9 SW 5 5 1016.9 - 0.0 - - - - - - -
20/12:00am 21.0 SSW 4 5 1016.6 - 0.0 - - - - - - -
 
Date/Time
EST
Temp

°C
Wind Pressure Rain
since 9am
mm
Weather Cloud Vis
km
Sea
Height
m
Swell
Dir
 
Speed
knots
Gust
knots
hPa Trend Height
m
Period
s
Dir
19/11:30pm 21.1 SSW 3 5 1017.0 - 0.0 - - - - - - -
19/11:00pm 21.4 SSE 3 6 1017.0 - 0.0 - - - - - - -
19/10:30pm 21.4 ESE 6 7 1016.9 - 0.0 - - - - - - -
19/10:00pm 21.6 SE 5 6 1016.9 - 0.0 - - - - - - -
19/09:30pm 21.3 ESE 3 5 1016.9 - 0.0 - - - - - - -
19/09:00pm 21.3 NNE 3 5 1016.5 - 0.0 - - - - - - -
19/08:30pm 20.7 NW 4 6 1016.8 - 0.0 - - - - - - -
19/08:00pm 21.5 ESE 5 8 1016.3 - 0.0 - - - - - - -
19/07:30pm 22.4 ESE 9 11 1015.9 - 0.0 - - - - - - -
19/07:00pm 22.6 SE 11 14 1015.4 - 0.0 - - - - - - -
19/06:30pm 22.6 SSE 9 12 1015.0 - 0.0 - - - - - - -
19/06:00pm 22.6 ESE 13 15 1014.4 - 0.0 - - - - - - -
19/05:30pm 22.7 SE 12 14 1014.9 - 0.0 - - - - - - -
19/05:00pm 23.0 SSE 9 12 1014.4 - 0.0 - - - - - - -
19/04:30pm 23.1 SSE 9 13 1014.3 - 0.0 - - - - - - -
19/04:00pm 23.4 SSE 11 15 1014.1 - 0.0 - - - - - - -
19/03:30pm 23.4 S 13 17 1014.2 - 0.0 - - - - - - -
19/03:00pm 23.5 S 13 17 1013.7 - 0.0 - - - - - - -
19/02:30pm 23.6 S 13 17 1014.2 - 0.0 - - - - - - -
19/02:00pm 23.5 S 12 17 1014.2 - 0.0 - - - - - - -
19/01:30pm 23.6 S 12 16 1014.2 - 0.0 - - - - - - -
19/01:00pm 24.4 SSW 10 13 1014.5 - 0.0 - - - - - - -
19/12:30pm 24.7 WSW 7 11 1014.9 - 0.0 - - - - - - -
19/12:00pm 24.1 SW 10 15 1014.9 - 0.0 - - - - - - -
19/11:30am 23.9 SW 8 13 1015.8 - 0.0 - - - - - - -
19/11:00am 23.2 SW 11 14 1016.2 - 0.0 - - - - - - -
19/10:30am 22.9 WSW 11 14 1016.4 - 0.0 - - - - - - -
19/10:00am 22.3 SW 12 15 1016.5 - 0.0 - - - - - - -
19/09:30am 21.7 WSW 13 16 1016.6 - 0.0 - - - - - - -
19/09:00am 20.8 WSW 11 15 1016.5 - 0.0 - - - - - - -
19/08:30am 19.8 WSW 13 18 1016.8 - 0.0 - - - - - - -
19/08:00am 18.9 W 14 19 1016.6 - 0.0 - - - - - - -
19/07:30am 18.5 W 16 21 1016.4 - 0.0 - - - - - - -
19/07:00am 18.0 WSW 17 23 1016.3 - 0.0 - - - - - - -
19/06:30am 17.6 W 18 23 1016.0 - 0.0 - - - - - - -
19/06:00am 18.1 W 16 20 1015.4 - 0.0 - - - - - - -
19/05:30am 17.4 W 15 19 1015.6 - 0.0 - - - - - - -
19/05:00am 17.4 WNW 12 15 1015.5 - 0.0 - - - - - - -
19/04:30am 17.9 WNW 10 13 1015.2 - 0.0 - - - - - - -
19/04:00am 18.4 W 10 13 1015.1 - 0.0 - - - - - - -
19/03:30am 18.9 W 9 12 1015.3 - 0.0 - - - - - - -
19/03:00am 19.4 WSW 10 11 1014.9 - 0.0 - - - - - - -
19/02:30am 18.7 W 9 10 1015.5 - 0.0 - - - - - - -
19/02:00am 18.3 W 8 11 1015.5 - 0.0 - - - - - - -
19/01:30am 17.9 NW 5 8 1015.7 - 0.0 - - - - - - -
19/01:00am 18.3 WNW 5 8 1015.8 - 0.0 - - - - - - -
19/12:30am 19.5 NNW 5 8 1015.8 - 0.0 - - - - - - -
19/12:00am 20.0 N 5 7 1015.4 - 0.0 - - - - - - -
 
Date/Time
EST
Temp

°C
Wind Pressure Rain
since 9am
mm
Weather Cloud Vis
km
Sea
Height
m
Swell
Dir
 
Speed
knots
Gust
knots
hPa Trend Height
m
Period
s
Dir
18/11:30pm 20.2 N 5 8 1015.9 - 0.0 - - - - - - -
18/11:00pm 19.1 NW 4 8 1016.1 - 0.0 - - - - - - -
18/10:30pm 19.0 NNW 4 6 1016.2 - 0.0 - - - - - - -
18/10:00pm 18.7 NW 4 5 1016.3 - 0.0 - - - - - - -
18/09:30pm 19.2 NW 4 7 1016.3 - 0.0 - - - - - - -
18/09:00pm 20.3 NW 4 7 1015.9 - 0.0 - - - - - - -
18/08:30pm 21.8 N 9 12 1016.1 - 0.0 - - - - - - -
18/08:00pm 21.8 NNE 8 11 1016.0 - 0.0 - - - - - - -
18/07:30pm 21.7 NE 7 11 1015.7 - 0.0 - - - - - - -
18/07:00pm 21.6 NE 9 12 1015.4 - 0.0 - - - - - - -
18/06:30pm 21.5 NE 8 11 1015.1 - 0.0 - - - - - - -
18/06:00pm 21.5 NE 7 10 1014.6 - 0.0 - - - - - - -
18/05:30pm 21.6 ENE 7 10 1014.8 - 0.0 - - - - - - -
18/05:00pm 22.1 E 5 7 1014.5 - 0.0 - - - - - - -
18/04:30pm 23.3 ENE 6 8 1014.3 - 0.0 - - - - - - -
18/04:00pm 23.9 E 6 8 1014.1 - 0.0 - - - - - - -
18/03:30pm 24.6 E 7 10 1014.0 - 0.0 - - - - - - -
18/03:00pm 24.7 E 9 11 1013.6 - 0.0 - - - - - - -

Other Formats:

Comma delimited format used in spreadsheet applications
http://www.bom.gov.au/fwo/IDN60701/IDN60701.94599.axf

JavaScript Object Notation format (JSON) in row-major order
http://www.bom.gov.au/fwo/IDN60701/IDN60701.94599.json